Time;durP1;ratioP1;P1;durP2;ratioP2;P2;SDS_P1;SDS_P2;PMS_P1;PMS_P2;Temp;Humidity;BMP_temperature;BMP_pressure;BME280_temperature;BME280_humidity;BME280_pressure;Samples;Min_cycle;Max_cycle;Signal;HPM_P1;HPM_P2
2023/08/23 00:00:30;;;;;;;10.55;6.90;;;;;;;26.21;nan;62458.09;5032683;28;20171;-63
2023/08/23 00:02:55;;;;;;;12.35;6.88;;;;;;;26.14;nan;62376.72;5032931;28;20171;-67
2023/08/23 00:05:21;;;;;;;10.20;6.50;;;;;;;26.21;nan;62613.28;5032760;28;20328;-65
2023/08/23 00:07:46;;;;;;;14.20;7.10;;;;;;;26.09;nan;62405.63;5031500;28;20265;-63
2023/08/23 00:10:12;;;;;;;10.50;7.40;;;;;;;26.21;nan;62445.59;5032354;28;20724;-67
2023/08/23 00:12:37;;;;;;;9.63;6.93;;;;;;;25.86;nan;62338.03;5033076;28;20199;-66
2023/08/23 00:15:03;;;;;;;12.13;7.22;;;;;;;25.78;nan;62323.69;5032707;28;20240;-66
2023/08/23 00:17:29;;;;;;;11.68;6.70;;;;;;;25.47;nan;62377.28;5033132;28;20171;-64
2023/08/23 00:19:54;;;;;;;9.93;7.15;;;;;;;25.36;nan;62302.47;5032724;28;20206;-62
2023/08/23 00:22:19;;;;;;;13.20;7.15;;;;;;;25.04;nan;62333.97;5032534;28;20164;-65
2023/08/23 00:24:45;;;;;;;11.35;7.30;;;;;;;25.24;nan;62251.59;5032295;28;20209;-64
2023/08/23 00:27:10;;;;;;;10.88;7.30;;;;;;;24.99;nan;62485.16;5032189;28;20559;-66
2023/08/23 00:29:37;;;;;;;11.43;7.50;;;;;;;25.05;nan;62218.00;5032811;28;20175;-63
2023/08/23 00:32:03;;;;;;;11.20;7.22;;;;;;;25.07;nan;62243.81;5032629;28;20189;-66
2023/08/23 00:34:28;;;;;;;10.00;6.88;;;;;;;25.08;nan;62477.16;5032421;28;20167;-64
2023/08/23 00:36:54;;;;;;;12.65;7.82;;;;;;;24.86;nan;62318.63;5032357;28;20174;-64
2023/08/23 00:39:19;;;;;;;10.98;7.07;;;;;;;24.94;nan;62181.34;5031699;28;20270;-66
2023/08/23 00:41:44;;;;;;;13.18;6.93;;;;;;;24.71;nan;62192.28;5032332;28;20654;-65
2023/08/23 00:44:10;;;;;;;11.68;7.45;;;;;;;24.87;nan;62212.59;5030471;28;20271;-66
2023/08/23 00:46:35;;;;;;;10.88;7.22;;;;;;;24.69;nan;62221.38;5032059;28;20185;-63
2023/08/23 00:49:01;;;;;;;11.88;7.40;;;;;;;24.84;nan;62185.63;5031757;28;20163;-67
2023/08/23 00:51:26;;;;;;;13.13;7.45;;;;;;;24.57;nan;62265.19;5031501;28;20167;-65
2023/08/23 00:53:52;;;;;;;10.65;7.03;;;;;;;23.92;nan;62165.50;5031355;28;20264;-67
2023/08/23 00:56:17;;;;;;;12.10;7.20;;;;;;;24.13;nan;62174.34;5031462;28;20292;-67
2023/08/23 00:58:43;;;;;;;12.80;7.80;;;;;;;24.29;nan;62094.81;5031451;28;20280;-67
2023/08/23 01:01:08;;;;;;;13.60;7.80;;;;;;;24.18;nan;62127.81;5031204;28;20179;-67
2023/08/23 01:03:34;;;;;;;11.82;7.30;;;;;;;24.14;nan;62232.91;5031292;28;20174;-66
2023/08/23 01:06:19;;;;;;;11.73;7.07;;;;;;;24.18;nan;62182.66;5031449;28;20159;-66
2023/08/23 01:09:07;;;;;;;14.48;7.95;;;;;;;23.90;nan;62215.44;5031293;28;20320;-65
2023/08/23 01:12:19;;;;;;;12.75;7.97;;;;;;;24.10;nan;62183.97;5031219;28;20627;-65
2023/08/23 01:14:47;;;;;;;14.38;7.60;;;;;;;24.09;nan;62195.31;5030707;28;20781;-66
2023/08/23 01:17:15;;;;;;;10.95;7.57;;;;;;;23.96;nan;62209.78;5031438;28;20171;-65
2023/08/23 01:19:44;;;;;;;12.68;7.45;;;;;;;23.85;nan;62040.66;5029878;28;20657;-65
2023/08/23 01:22:13;;;;;;;13.52;8.27;;;;;;;23.88;nan;62174.00;5029295;28;20167;-65
2023/08/23 01:24:39;;;;;;;10.77;7.30;;;;;;;24.06;nan;62176.22;5029273;28;20171;-65
2023/08/23 01:27:05;;;;;;;10.43;6.90;;;;;;;23.74;nan;62049.00;5029121;28;20563;-64
2023/08/23 01:29:30;;;;;;;14.10;8.18;;;;;;;23.80;nan;62087.16;5029109;28;20176;-66
2023/08/23 01:32:06;;;;;;;13.88;7.68;;;;;;;23.74;nan;62062.03;5029523;28;20623;-67
2023/08/23 01:34:36;;;;;;;12.95;8.00;;;;;;;23.61;nan;62152.19;5029297;28;20182;-63
2023/08/23 01:37:05;;;;;;;13.73;8.00;;;;;;;23.42;nan;61994.88;5031252;28;20167;-63
2023/08/23 01:39:33;;;;;;;12.80;8.35;;;;;;;23.51;nan;62161.66;5031490;28;20181;-61
2023/08/23 01:42:00;;;;;;;15.38;8.80;;;;;;;23.27;nan;62012.28;5031447;28;20179;-64
2023/08/23 01:44:25;;;;;;;12.77;7.80;;;;;;;23.08;nan;62021.97;5031443;28;20179;-65
2023/08/23 01:46:51;;;;;;;13.75;8.73;;;;;;;23.24;nan;62091.75;5031591;28;20174;-68
2023/08/23 01:49:16;;;;;;;14.25;8.40;;;;;;;23.12;nan;62101.56;5031504;28;20180;-67
2023/08/23 01:51:41;;;;;;;15.00;8.85;;;;;;;23.00;nan;62075.41;5031094;28;20506;-66
2023/08/23 01:54:07;;;;;;;13.48;8.23;;;;;;;23.08;nan;61972.44;5031323;28;20183;-63
2023/08/23 01:56:32;;;;;;;15.68;8.13;;;;;;;23.00;nan;62114.50;5031123;28;20290;-67
2023/08/23 01:58:57;;;;;;;14.32;8.85;;;;;;;23.06;nan;61998.28;5031173;28;20180;-64
2023/08/23 02:01:23;;;;;;;15.40;8.63;;;;;;;23.11;nan;61994.09;5031258;28;20172;-67
2023/08/23 02:03:48;;;;;;;16.05;8.82;;;;;;;22.85;nan;62060.94;5031225;28;20657;-66
2023/08/23 02:06:14;;;;;;;14.55;9.30;;;;;;;22.80;nan;61925.53;5030959;28;20182;-69
2023/08/23 02:08:39;;;;;;;14.82;8.52;;;;;;;22.81;nan;62040.75;5032260;28;20249;-64
2023/08/23 02:11:04;;;;;;;15.48;8.98;;;;;;;22.72;nan;62056.56;5031417;28;20174;-69
2023/08/23 02:13:30;;;;;;;15.27;9.00;;;;;;;22.75;nan;61951.13;5030580;28;20644;-66
2023/08/23 02:15:55;;;;;;;15.63;8.95;;;;;;;22.70;nan;62020.44;5031144;28;20203;-69
2023/08/23 02:18:21;;;;;;;14.73;8.88;;;;;;;22.81;nan;62004.28;5030999;28;20163;-64
2023/08/23 02:20:55;;;;;;;17.65;8.75;;;;;;;22.09;nan;61967.75;5031068;28;20179;-66
2023/08/23 02:23:20;;;;;;;16.83;9.20;;;;;;;22.79;nan;61926.44;5031022;28;20164;-67
2023/08/23 02:25:45;;;;;;;17.20;9.13;;;;;;;22.57;nan;62021.78;5031080;28;20688;-68
2023/08/23 02:28:11;;;;;;;13.60;8.48;;;;;;;22.71;nan;61935.56;5030775;28;20234;-66
2023/08/23 02:30:36;;;;;;;16.63;8.90;;;;;;;22.48;nan;61891.75;5030805;28;20222;-66
2023/08/23 02:33:01;;;;;;;15.18;9.30;;;;;;;22.65;nan;61921.50;5030746;28;20587;-65
2023/08/23 02:35:27;;;;;;;14.20;8.57;;;;;;;22.62;nan;61993.63;5030892;28;20199;-66
2023/08/23 02:37:53;;;;;;;16.10;9.00;;;;;;;22.69;nan;61964.56;5031259;28;20167;-63
2023/08/23 02:40:19;;;;;;;16.10;9.13;;;;;;;22.64;nan;62029.78;5031886;28;20163;-65
2023/08/23 02:42:44;;;;;;;16.08;8.73;;;;;;;22.63;nan;61906.19;5034907;28;20171;-63
2023/08/23 02:45:09;;;;;;;15.18;8.68;;;;;;;22.57;nan;61885.78;5034438;28;20171;-66
2023/08/23 02:47:35;;;;;;;14.48;8.65;;;;;;;22.95;nan;61978.50;5034703;28;20179;-64
2023/08/23 02:50:00;;;;;;;14.98;9.02;;;;;;;22.65;nan;61832.38;5034386;28;20168;-65
2023/08/23 02:52:25;;;;;;;23.05;9.93;;;;;;;22.55;nan;61917.38;5034143;28;20202;-65
2023/08/23 02:54:51;;;;;;;14.15;9.05;;;;;;;22.65;nan;61900.66;5034020;28;20191;-67
2023/08/23 02:57:16;;;;;;;14.50;8.63;;;;;;;22.44;nan;61877.38;5034136;28;20167;-68
2023/08/23 02:59:41;;;;;;;15.73;9.15;;;;;;;22.42;nan;61911.00;5034017;28;20186;-66
2023/08/23 03:02:07;;;;;;;15.45;9.02;;;;;;;22.69;nan;61970.34;5029200;28;20219;-67
2023/08/23 03:04:32;;;;;;;16.10;8.90;;;;;;;22.67;nan;62079.50;5030753;28;20179;-69
2023/08/23 03:06:58;;;;;;;14.43;9.07;;;;;;;22.64;nan;62042.78;5033743;28;20192;-65
2023/08/23 03:09:23;;;;;;;15.93;9.05;;;;;;;22.65;nan;61895.47;5033874;28;20231;-64
2023/08/23 03:11:48;;;;;;;13.68;8.90;;;;;;;22.70;nan;61903.19;5033897;28;20641;-64
2023/08/23 03:14:14;;;;;;;17.42;9.30;;;;;;;22.55;nan;62048.19;5033930;28;20285;-64
2023/08/23 03:16:39;;;;;;;15.88;8.18;;;;;;;22.46;nan;62158.28;5032822;28;20209;-67
2023/08/23 03:19:04;;;;;;;17.65;8.68;;;;;;;22.55;nan;61993.47;5033966;28;20206;-66
2023/08/23 03:21:30;;;;;;;14.43;8.82;;;;;;;22.45;nan;61917.56;5033806;28;20537;-65
2023/08/23 03:23:55;;;;;;;18.25;9.18;;;;;;;22.31;nan;61867.25;5033141;28;20171;-67
2023/08/23 03:26:20;;;;;;;14.25;8.80;;;;;;;22.20;nan;61863.13;5033563;28;20179;-67
2023/08/23 03:28:46;;;;;;;13.00;8.02;;;;;;;22.25;nan;61842.78;5033689;28;20270;-64
2023/08/23 03:31:11;;;;;;;13.43;8.02;;;;;;;;;;5033791;28;20179;-68
2023/08/23 03:33:36;;;;;;;15.52;8.57;;;;;;;22.12;nan;61880.06;5032885;28;20593;-67
2023/08/23 03:36:03;;;;;;;13.55;8.73;;;;;;;22.38;nan;61859.59;5031902;28;20230;-63
2023/08/23 03:38:28;;;;;;;14.65;8.98;;;;;;;22.32;nan;62120.94;5033105;28;20662;-63
2023/08/23 03:40:54;;;;;;;12.77;7.88;;;;;;;22.32;nan;61995.94;5033407;28;20170;-65
2023/08/23 03:43:19;;;;;;;13.07;8.23;;;;;;;22.34;nan;62011.25;5033439;28;20622;-67
2023/08/23 03:45:48;;;;;;;15.02;8.50;;;;;;;22.46;nan;61866.63;5033367;28;20210;-67
2023/08/23 03:48:15;;;;;;;12.65;8.05;;;;;;;22.35;nan;61851.53;5033084;28;20264;-65
2023/08/23 03:50:40;;;;;;;15.57;9.52;;;;;;;22.63;nan;62012.44;5033479;28;20167;-67
2023/08/23 03:53:06;;;;;;;11.70;7.63;;;;;;;22.86;nan;61979.25;5032550;28;20557;-67
2023/08/23 03:55:31;;;;;;;13.57;8.40;;;;;;;23.15;nan;61956.38;5032855;28;20759;-68
2023/08/23 03:57:57;;;;;;;13.77;8.65;;;;;;;23.46;nan;62014.53;5033217;28;20175;-63
2023/08/23 04:00:22;;;;;;;16.60;9.00;;;;;;;23.87;nan;62128.47;5032656;28;20301;-63
2023/08/23 04:02:48;;;;;;;14.40;8.65;;;;;;;24.29;nan;62103.22;5032806;28;20217;-67
2023/08/23 04:05:13;;;;;;;12.98;8.07;;;;;;;24.53;nan;62208.94;5032396;28;20186;-64
2023/08/23 04:07:40;;;;;;;12.27;8.00;;;;;;;24.97;nan;62341.69;5032549;28;20226;-66
2023/08/23 04:10:06;;;;;;;14.80;8.55;;;;;;;25.53;nan;62289.91;5032901;28;20171;-68
2023/08/23 04:12:31;;;;;;;14.20;8.35;;;;;;;25.84;nan;62552.53;5032687;28;20182;-67
2023/08/23 04:14:57;;;;;;;11.00;7.60;;;;;;;26.33;nan;62433.09;5032729;28;20334;-68
2023/08/23 04:17:23;;;;;;;12.70;7.90;;;;;;;26.72;nan;62733.50;5031200;28;20175;-68
2023/08/23 04:19:49;;;;;;;13.00;8.38;;;;;;;27.13;nan;62507.09;5032091;28;20179;-64
2023/08/23 04:22:15;;;;;;;15.10;7.55;;;;;;;27.31;nan;62527.09;5031829;28;20176;-65
2023/08/23 04:24:40;;;;;;;14.82;7.93;;;;;;;27.60;nan;62594.44;5032062;28;20604;-67
2023/08/23 04:27:06;;;;;;;13.18;8.07;;;;;;;27.63;nan;62619.44;5032156;28;20179;-66
2023/08/23 04:29:31;;;;;;;13.27;8.85;;;;;;;27.64;nan;62607.47;5032034;28;20238;-68
2023/08/23 04:31:56;;;;;;;12.30;7.72;;;;;;;27.66;nan;62649.13;5031808;28;20197;-67
2023/08/23 04:34:22;;;;;;;13.20;8.00;;;;;;;27.60;nan;62786.72;5032329;28;20175;-65
2023/08/23 04:36:47;;;;;;;11.52;7.82;;;;;;;27.23;nan;62487.59;5033683;28;20558;-66
2023/08/23 04:39:12;;;;;;;13.18;8.20;;;;;;;27.10;nan;62522.00;5030879;28;20183;-65
2023/08/23 04:41:38;;;;;;;12.80;8.23;;;;;;;26.77;nan;62479.59;5031584;28;20229;-66
2023/08/23 04:44:03;;;;;;;11.48;7.60;;;;;;;26.48;nan;62543.44;5031380;28;20175;-63
2023/08/23 04:46:29;;;;;;;13.65;8.10;;;;;;;26.65;nan;62458.59;5030901;28;20589;-67
2023/08/23 04:48:54;;;;;;;12.60;8.02;;;;;;;26.29;nan;62404.94;5025630;28;20551;-64
2023/08/23 04:51:21;;;;;;;12.50;8.13;;;;;;;26.25;nan;62499.38;5020645;28;20244;-68
2023/08/23 04:53:46;;;;;;;11.85;8.00;;;;;;;25.99;nan;62488.50;5017577;28;20229;-64
2023/08/23 04:56:12;;;;;;;16.65;8.40;;;;;;;26.00;nan;62314.16;5013839;28;20576;-64
2023/08/23 04:58:38;;;;;;;11.82;7.70;;;;;;;25.63;nan;62405.47;5017253;28;20187;-65
2023/08/23 05:01:05;;;;;;;13.13;8.25;;;;;;;25.79;nan;62256.75;5020218;28;20551;-66
2023/08/23 05:03:34;;;;;;;11.27;7.93;;;;;;;25.89;nan;62425.28;5018415;28;20176;-65
2023/08/23 05:06:01;;;;;;;12.82;8.05;;;;;;;26.06;nan;62365.53;5019126;28;20195;-66
2023/08/23 05:08:28;;;;;;;15.48;7.75;;;;;;;25.80;nan;62443.78;5014432;28;20254;-64
2023/08/23 05:10:54;;;;;;;12.75;7.88;;;;;;;25.97;nan;62483.63;5012402;28;20256;-67
2023/08/23 05:13:21;;;;;;;11.00;7.72;;;;;;;26.15;nan;62404.06;5014438;28;20172;-67
2023/08/23 05:15:56;;;;;;;16.58;8.05;;;;;;;26.07;nan;62463.03;5019554;28;20255;-65
2023/08/23 05:18:22;;;;;;;11.70;8.02;;;;;;;26.33;nan;62509.09;5011588;28;20194;-68
2023/08/23 05:20:59;;;;;;;11.90;7.50;;;;;;;26.49;nan;62418.78;5025616;28;20179;-66
2023/08/23 05:23:25;;;;;;;11.15;7.28;;;;;;;26.29;nan;62399.13;5028841;28;20246;-66
2023/08/23 05:25:54;;;;;;;10.30;7.00;;;;;;;26.59;nan;62427.56;5010474;28;20195;-70
2023/08/23 05:28:20;;;;;;;14.32;8.00;;;;;;;26.66;nan;62490.63;5011810;28;20176;-68
2023/08/23 05:30:46;;;;;;;20.48;8.43;;;;;;;26.69;nan;62598.94;5011639;28;20242;-66
2023/08/23 05:33:12;;;;;;;13.93;8.10;;;;;;;26.87;nan;62467.44;5011362;28;20275;-67
2023/08/23 05:35:40;;;;;;;12.45;7.45;;;;;;;26.87;nan;62399.25;5011673;28;20287;-66
2023/08/23 05:38:05;;;;;;;11.52;7.18;;;;;;;27.08;nan;62614.78;5012190;28;20191;-68
2023/08/23 05:40:31;;;;;;;15.32;7.65;;;;;;;27.23;nan;62539.53;5011824;28;20176;-63
2023/08/23 05:42:57;;;;;;;11.75;6.80;;;;;;;27.20;nan;62552.41;5012138;28;20179;-66
2023/08/23 05:45:26;;;;;;;11.73;7.95;;;;;;;27.41;nan;62696.63;5011441;28;20584;-65
2023/08/23 05:47:53;;;;;;;11.38;7.07;;;;;;;27.32;nan;62538.75;5030436;28;20305;-68
2023/08/23 05:50:18;;;;;;;11.30;7.40;;;;;;;27.61;nan;62729.50;5031135;28;20184;-65
2023/08/23 05:52:43;;;;;;;8.98;6.65;;;;;;;27.55;nan;62523.06;5029513;28;20663;-67
2023/08/23 05:55:09;;;;;;;14.95;7.30;;;;;;;27.82;nan;62638.00;5031049;28;20202;-65
2023/08/23 05:57:34;;;;;;;10.77;7.10;;;;;;;27.80;nan;62671.91;5030983;28;20258;-67
2023/08/23 06:00:00;;;;;;;15.73;7.25;;;;;;;28.15;nan;62666.78;5031101;28;20152;-65
2023/08/23 06:02:25;;;;;;;10.18;6.75;;;;;;;28.27;nan;62730.47;5030801;28;20207;-63
2023/08/23 06:04:51;;;;;;;11.25;7.07;;;;;;;28.14;nan;62573.63;5031236;28;20642;-64
2023/08/23 06:07:17;;;;;;;8.32;6.32;;;;;;;28.39;nan;62926.22;5029169;28;20222;-65
2023/08/23 06:09:43;;;;;;;10.70;6.90;;;;;;;28.62;nan;62709.53;5031003;28;20266;-70
2023/08/23 06:12:08;;;;;;;12.73;7.38;;;;;;;28.63;nan;62653.34;5030688;28;20183;-65
2023/08/23 06:14:34;;;;;;;12.07;7.05;;;;;;;28.83;nan;62842.06;5032313;28;20183;-70
2023/08/23 06:16:59;;;;;;;13.60;6.93;;;;;;;28.70;nan;62698.22;5034551;28;20562;-71
2023/08/23 06:19:25;;;;;;;9.63;6.82;;;;;;;28.64;nan;62969.59;5034562;28;20167;-68
2023/08/23 06:21:50;;;;;;;9.15;6.53;;;;;;;28.75;nan;62769.72;5034885;28;20175;-64
2023/08/23 06:24:15;;;;;;;13.13;7.28;;;;;;;28.51;nan;62750.09;5034655;28;20259;-68
2023/08/23 06:26:43;;;;;;;9.75;6.82;;;;;;;28.86;nan;62802.81;5034549;28;20203;-66
2023/08/23 06:29:09;;;;;;;12.25;6.88;;;;;;;28.92;nan;62825.50;5034780;28;20175;-63
2023/08/23 06:31:34;;;;;;;12.13;7.35;;;;;;;29.01;nan;62811.53;5034496;28;20176;-64
2023/08/23 06:34:00;;;;;;;10.45;7.05;;;;;;;29.01;nan;62898.41;5034739;28;20232;-64
2023/08/23 06:36:26;;;;;;;11.95;7.60;;;;;;;29.29;nan;62815.28;5034319;28;20237;-67
2023/08/23 06:38:51;;;;;;;9.82;7.25;;;;;;;29.38;nan;62862.50;5034578;28;20214;-64
2023/08/23 06:41:16;;;;;;;13.90;7.25;;;;;;;29.28;nan;62839.88;5034265;28;20518;-68
2023/08/23 06:43:43;;;;;;;12.38;6.88;;;;;;;29.41;nan;62849.53;5034311;28;20181;-63
2023/08/23 06:46:08;;;;;;;10.40;7.20;;;;;;;29.60;nan;62923.47;5034218;28;20228;-67
2023/08/23 06:48:34;;;;;;;12.35;7.22;;;;;;;29.76;nan;62897.06;5034125;28;20266;-63
2023/08/23 06:51:02;;;;;;;11.05;7.38;;;;;;;29.73;nan;63033.84;5034431;28;20244;-63
2023/08/23 06:53:28;;;;;;;12.20;7.40;;;;;;;29.96;nan;62959.59;5034409;28;20175;-65
2023/08/23 06:55:54;;;;;;;9.70;7.13;;;;;;;29.96;nan;62962.22;5032943;28;20248;-66
2023/08/23 06:58:20;;;;;;;12.75;7.13;;;;;;;30.33;nan;63128.16;5033565;28;20178;-67
2023/08/23 07:00:46;;;;;;;9.77;6.93;;;;;;;30.49;nan;63153.91;5034485;28;20668;-62
2023/08/23 07:03:11;;;;;;;10.95;6.70;;;;;;;30.77;nan;63072.06;5038342;28;20608;-65
2023/08/23 07:05:37;;;;;;;11.02;7.18;;;;;;;30.61;nan;63159.84;5033721;28;20163;-62
2023/08/23 07:08:03;;;;;;;15.93;7.60;;;;;;;30.14;nan;62922.25;5033272;28;20245;-67
2023/08/23 07:10:29;;;;;;;11.05;6.85;;;;;;;30.04;nan;62973.47;5033266;28;20213;-65
2023/08/23 07:12:55;;;;;;;16.35;7.45;;;;;;;30.28;nan;63027.44;5033234;28;20183;-67
2023/08/23 07:15:21;;;;;;;10.27;6.93;;;;;;;30.50;nan;63044.81;5033267;28;20220;-67
2023/08/23 07:17:48;;;;;;;11.75;7.28;;;;;;;30.71;nan;63098.00;5033606;28;20262;-67
2023/08/23 07:20:15;;;;;;;10.27;7.32;;;;;;;30.83;nan;63116.53;5033298;28;20199;-65
2023/08/23 07:22:41;;;;;;;9.57;6.57;;;;;;;30.77;nan;63130.16;5033323;28;20637;-66
2023/08/23 07:25:07;;;;;;;9.85;6.70;;;;;;;30.43;nan;62999.81;5033411;28;20209;-70
2023/08/23 07:27:33;;;;;;;13.73;7.47;;;;;;;30.38;nan;63093.75;5032389;28;20727;-66
2023/08/23 07:29:59;;;;;;;10.68;7.18;;;;;;;30.51;nan;63064.44;5033351;28;20175;-67
2023/08/23 07:32:25;;;;;;;11.32;7.45;;;;;;;30.34;nan;63089.13;5033240;28;20159;-70
2023/08/23 07:34:51;;;;;;;9.52;6.60;;;;;;;30.31;nan;63059.88;5032673;28;20218;-66
2023/08/23 07:37:17;;;;;;;10.02;7.22;;;;;;;30.68;nan;63099.84;5033098;28;20199;-66
2023/08/23 07:39:43;;;;;;;11.52;7.35;;;;;;;30.89;nan;63178.31;5032892;28;20202;-63
2023/08/23 07:42:09;;;;;;;11.48;6.63;;;;;;;31.32;nan;63293.31;5032712;28;20203;-63
2023/08/23 07:44:34;;;;;;;11.75;6.85;;;;;;;31.58;nan;63301.63;5032931;28;20179;-71
2023/08/23 07:47:00;;;;;;;11.90;7.35;;;;;;;31.62;nan;63296.25;5032967;28;20175;-68
2023/08/23 07:49:26;;;;;;;10.30;7.10;;;;;;;31.90;nan;63298.84;5032390;28;20159;-65
2023/08/23 07:51:51;;;;;;;11.02;7.55;;;;;;;31.75;nan;63305.34;5032294;28;20163;-68
2023/08/23 07:54:17;;;;;;;9.60;7.22;;;;;;;32.13;nan;63277.78;5031950;28;20194;-67
2023/08/23 07:56:42;;;;;;;10.55;7.30;;;;;;;31.92;nan;63293.22;5032049;28;20202;-68
2023/08/23 07:59:08;;;;;;;12.00;7.47;;;;;;;31.98;nan;63472.66;5032112;28;20214;-68
2023/08/23 08:01:33;;;;;;;10.02;7.05;;;;;;;32.22;nan;63327.25;5030543;28;20242;-68
2023/08/23 08:03:59;;;;;;;10.90;7.15;;;;;;;32.28;nan;63387.66;5031526;28;20185;-67
2023/08/23 08:06:24;;;;;;;10.65;7.22;;;;;;;32.10;nan;63324.56;5031596;28;20228;-65
2023/08/23 08:08:50;;;;;;;9.52;7.03;;;;;;;32.03;nan;63332.34;5032096;28;20214;-64
2023/08/23 08:11:16;;;;;;;12.30;7.10;;;;;;;32.00;nan;63347.97;5031767;28;20189;-68
2023/08/23 08:13:41;;;;;;;9.68;6.88;;;;;;;32.09;nan;63315.47;5031122;28;20193;-66
2023/08/23 08:16:11;;;;;;;11.35;7.50;;;;;;;32.15;nan;63443.53;5032340;28;20666;-67
2023/08/23 08:18:37;;;;;;;10.85;7.05;;;;;;;32.37;nan;63421.31;5032381;28;20175;-64
2023/08/23 08:21:02;;;;;;;9.77;7.07;;;;;;;32.15;nan;63351.50;5032193;28;20190;-67
2023/08/23 08:23:29;;;;;;;10.00;7.25;;;;;;;32.36;nan;63338.13;5025956;28;20193;-67
2023/08/23 08:25:55;;;;;;;10.82;6.97;;;;;;;32.54;nan;63453.59;5031936;28;20565;-68
2023/08/23 08:28:20;;;;;;;10.95;7.32;;;;;;;32.74;nan;63492.63;5032030;28;20190;-65
2023/08/23 08:30:46;;;;;;;10.50;6.95;;;;;;;32.70;nan;63421.78;5032013;28;20171;-66
2023/08/23 08:33:12;;;;;;;8.88;6.65;;;;;;;32.99;nan;63446.75;5030241;28;20190;-70
2023/08/23 08:35:37;;;;;;;12.40;7.18;;;;;;;33.07;nan;63482.47;5031722;28;20198;-65
2023/08/23 08:38:03;;;;;;;11.65;7.47;;;;;;;33.24;nan;63576.34;5031168;28;20155;-66
2023/08/23 08:40:29;;;;;;;10.50;7.32;;;;;;;33.40;nan;63642.56;5031527;28;20205;-67
2023/08/23 08:42:55;;;;;;;10.30;6.85;;;;;;;33.70;nan;63581.25;5030037;28;20183;-64
2023/08/23 08:45:20;;;;;;;8.50;6.40;;;;;;;33.67;nan;63642.03;5031337;28;20710;-65
2023/08/23 08:47:47;;;;;;;9.52;6.32;;;;;;;33.87;nan;63616.84;5031678;28;20255;-68
2023/08/23 08:50:13;;;;;;;10.23;6.03;;;;;;;33.76;nan;63659.25;5031735;28;20638;-67
2023/08/23 08:52:54;;;;;;;8.00;5.95;;;;;;;33.93;nan;63652.97;5030154;28;20193;-66
2023/08/23 08:55:24;;;;;;;6.90;5.43;;;;;;;33.88;nan;63097.41;5030150;28;20289;-67
2023/08/23 08:57:53;;;;;;;7.68;5.70;;;;;;;34.16;nan;63735.34;5031142;28;20213;-66
2023/08/23 09:00:22;;;;;;;10.65;5.20;;;;;;;33.98;nan;63713.91;5031446;28;20202;-66
2023/08/23 09:02:52;;;;;;;9.30;5.40;;;;;;;34.20;nan;63734.09;5026401;28;20238;-64
2023/08/23 09:05:20;;;;;;;7.35;5.15;;;;;;;33.77;nan;63652.44;5031831;28;20243;-67
2023/08/23 09:07:46;;;;;;;7.53;5.43;;;;;;;33.01;nan;63470.25;5030881;28;20589;-61
2023/08/23 09:10:13;;;;;;;7.72;5.60;;;;;;;33.12;nan;63520.03;5031392;28;20632;-69
2023/08/23 09:12:38;;;;;;;11.13;5.70;;;;;;;33.18;nan;63527.00;5027857;28;20190;-66
2023/08/23 09:15:04;;;;;;;7.88;5.45;;;;;;;33.20;nan;63286.06;5030930;28;20195;-67
2023/08/23 09:17:35;;;;;;;8.10;5.75;;;;;;;33.50;nan;63601.13;5030445;28;20183;-65
2023/08/23 09:20:08;;;;;;;6.95;5.47;;;;;;;33.37;nan;63636.47;5030937;28;20163;-65
2023/08/23 09:22:34;;;;;;;7.72;5.53;;;;;;;33.44;nan;63530.53;5024576;28;20260;-64
2023/08/23 09:25:03;;;;;;;8.35;5.70;;;;;;;33.36;nan;63528.69;5036528;28;20217;-65
2023/08/23 09:27:29;;;;;;;8.25;5.80;;;;;;;33.37;nan;63585.50;5034963;28;20186;-66
2023/08/23 09:29:56;;;;;;;8.52;6.40;;;;;;;33.48;nan;63600.88;5031574;28;20166;-65
2023/08/23 09:32:21;;;;;;;9.35;6.15;;;;;;;33.54;nan;63578.66;5029028;28;20182;-65
2023/08/23 09:34:47;;;;;;;8.73;6.13;;;;;;;33.56;nan;63591.56;5029770;28;20532;-71
2023/08/23 09:37:12;;;;;;;9.40;5.75;;;;;;;28.63;nan;62798.03;5030831;28;20178;-65
2023/08/23 09:39:38;;;;;;;9.73;6.28;;;;;;;33.82;nan;63680.03;5033090;28;20190;-65
2023/08/23 09:42:05;;;;;;;9.63;6.25;;;;;;;34.01;nan;63659.00;5030650;28;20177;-63
2023/08/23 09:44:37;;;;;;;7.50;5.90;;;;;;;34.16;nan;63657.78;5029164;28;20638;-68
2023/08/23 09:47:05;;;;;;;8.55;5.82;;;;;;;33.95;nan;63652.63;5030066;28;20296;-64
2023/08/23 09:49:33;;;;;;;7.15;5.45;;;;;;;34.06;nan;63686.59;5031830;28;20198;-65
2023/08/23 09:52:00;;;;;;;9.23;5.43;;;;;;;34.07;nan;63697.78;5033344;28;20182;-68
2023/08/23 09:54:46;;;;;;;8.05;5.88;;;;;;;33.83;nan;63672.66;5034710;28;20270;-65
2023/08/23 09:57:13;;;;;;;10.15;5.97;;;;;;;33.44;nan;63468.97;5034524;28;20179;-64
2023/08/23 09:59:39;;;;;;;8.77;5.45;;;;;;;33.80;nan;63653.84;5034304;28;20233;-65
2023/08/23 10:02:09;;;;;;;7.60;5.68;;;;;;;30.44;nan;65041.03;5033155;28;20636;-66
2023/08/23 10:04:36;;;;;;;9.20;5.63;;;;;;;33.44;nan;63599.47;5034684;28;20186;-66
2023/08/23 10:07:01;;;;;;;9.20;5.18;;;;;;;33.56;nan;63629.28;5034695;28;20171;-61
2023/08/23 10:09:27;;;;;;;7.55;5.55;;;;;;;33.95;nan;63716.31;5034407;28;20222;-62
2023/08/23 10:11:53;;;;;;;8.10;5.38;;;;;;;33.99;nan;63742.16;5033471;28;20745;-66
2023/08/23 10:14:19;;;;;;;8.20;5.15;;;;;;;33.89;nan;63685.50;5033005;28;20186;-65
2023/08/23 10:16:45;;;;;;;8.65;5.15;;;;;;;34.22;nan;63735.84;5034537;28;20203;-67
2023/08/23 10:19:11;;;;;;;8.65;5.35;;;;;;;34.10;nan;63865.81;5034724;28;20171;-67
2023/08/23 10:21:37;;;;;;;8.18;6.05;;;;;;;34.10;nan;63693.88;5028813;28;20337;-65
2023/08/23 10:24:06;;;;;;;8.20;5.50;;;;;;;34.33;nan;63868.66;5034337;28;20185;-65
2023/08/23 10:26:48;;;;;;;7.22;5.30;;;;;;;34.58;nan;63729.75;5034293;28;20237;-65
2023/08/23 10:29:13;;;;;;;8.35;5.95;;;;;;;35.00;nan;63775.16;5031718;28;20618;-68
2023/08/23 10:31:52;;;;;;;7.75;5.55;;;;;;;35.21;nan;63935.13;5034102;28;20183;-63
2023/08/23 10:34:23;;;;;;;7.47;5.18;;;;;;;35.43;nan;63923.41;5033724;28;20587;-68
2023/08/23 10:36:48;;;;;;;6.25;4.75;;;;;;;35.16;nan;63833.00;5034333;28;20205;-70
2023/08/23 10:39:14;;;;;;;6.75;4.57;;;;;;;35.11;nan;63849.03;5033868;28;20646;-65
2023/08/23 10:41:40;;;;;;;6.80;4.78;;;;;;;35.10;nan;63954.22;5034112;28;20254;-64
2023/08/23 10:44:15;;;;;;;10.70;5.05;;;;;;;35.02;nan;63812.63;5034175;28;20245;-65
2023/08/23 10:46:44;;;;;;;7.53;4.82;;;;;;;35.14;nan;63910.44;5034108;28;20166;-65
2023/08/23 10:49:14;;;;;;;6.97;4.97;;;;;;;35.41;nan;63925.84;5034040;28;20171;-63
2023/08/23 10:51:43;;;;;;;7.30;4.40;;;;;;;35.09;nan;63803.63;5033960;28;20649;-69
2023/08/23 10:54:12;;;;;;;7.10;4.88;;;;;;;35.34;nan;63981.53;5033870;28;20673;-67
2023/08/23 10:56:38;;;;;;;7.40;4.75;;;;;;;35.11;nan;63875.63;5033664;28;20268;-67
2023/08/23 10:59:04;;;;;;;6.40;4.60;;;;;;;32.31;nan;63462.59;5034136;28;20684;-65
2023/08/23 11:01:29;;;;;;;6.53;4.78;;;;;;;;;;5032699;28;20227;-67
2023/08/23 11:03:55;;;;;;;9.15;5.13;;;;;;;35.41;nan;63933.81;5032529;28;20202;-66
2023/08/23 11:06:21;;;;;;;8.80;5.15;;;;;;;35.01;nan;63882.63;5033490;28;20163;-64
2023/08/23 11:08:46;;;;;;;6.97;4.82;;;;;;;34.90;nan;64019.31;5033665;28;20230;-65
2023/08/23 11:11:12;;;;;;;6.82;4.82;;;;;;;34.68;nan;63799.78;5033599;28;20171;-69
2023/08/23 11:13:37;;;;;;;7.68;4.85;;;;;;;34.86;nan;63788.75;5033340;28;20178;-65
2023/08/23 11:16:04;;;;;;;8.52;4.90;;;;;;;34.98;nan;63898.34;5033304;28;20254;-69
2023/08/23 11:18:30;;;;;;;6.90;5.20;;;;;;;34.80;nan;63779.16;5032910;28;20174;-65
2023/08/23 11:20:55;;;;;;;6.72;4.68;;;;;;;34.94;nan;63800.09;5033079;28;20218;-64
2023/08/23 11:23:21;;;;;;;6.97;4.88;;;;;;;34.76;nan;63827.06;5033427;28;20293;-66
2023/08/23 11:25:46;;;;;;;6.03;4.57;;;;;;;34.47;nan;63717.00;5033069;28;20163;-65
2023/08/23 11:28:15;;;;;;;5.80;4.53;;;;;;;34.45;nan;63757.19;5033354;28;20169;-66
2023/08/23 11:30:42;;;;;;;6.82;4.80;;;;;;;34.37;nan;63692.13;5031995;28;20234;-65
2023/08/23 11:33:08;;;;;;;8.20;5.10;;;;;;;34.34;nan;63765.66;5033079;28;20183;-65
2023/08/23 11:35:33;;;;;;;7.72;5.38;;;;;;;;;;5032733;28;20197;-66
2023/08/23 11:37:59;;;;;;;7.63;5.22;;;;;;;34.67;nan;63772.06;5033152;28;20688;-67
2023/08/23 11:40:25;;;;;;;7.07;4.55;;;;;;;35.06;nan;63949.59;5033128;28;20179;-69
2023/08/23 11:42:56;;;;;;;7.20;4.60;;;;;;;35.24;nan;64074.22;5033188;28;20178;-67